createdAt,value
2023-04-16T00:02:10.144Z,7.10
2023-04-16T00:04:38.366Z,7.10
2023-04-16T00:07:09.405Z,7.00
2023-04-16T00:09:37.460Z,7.00
2023-04-16T00:12:07.161Z,7.00
2023-04-16T00:14:35.326Z,7.00
2023-04-16T00:17:03.389Z,7.00
2023-04-16T00:19:33.457Z,7.00
2023-04-16T00:22:01.445Z,6.90
2023-04-16T00:24:30.786Z,6.90
2023-04-16T00:26:58.766Z,6.90
2023-04-16T00:29:28.706Z,6.90
2023-04-16T00:31:56.663Z,6.90
2023-04-16T00:34:24.642Z,6.90
2023-04-16T00:36:52.627Z,6.80
2023-04-16T00:39:20.703Z,6.80
2023-04-16T00:41:50.254Z,6.80
2023-04-16T00:44:18.305Z,6.80
2023-04-16T00:46:47.395Z,6.80
2023-04-16T00:49:15.777Z,6.80
2023-04-16T00:51:44.116Z,6.80
2023-04-16T00:54:12.330Z,6.70
2023-04-16T00:56:41.088Z,6.70
2023-04-16T00:59:11.001Z,6.70
2023-04-16T01:01:39.134Z,6.70
2023-04-16T01:04:08.165Z,6.70
2023-04-16T01:06:36.349Z,6.70
2023-04-16T01:09:04.501Z,6.60
2023-04-16T01:11:32.620Z,6.60
2023-04-16T01:14:00.649Z,6.60
2023-04-16T01:16:30.150Z,6.60
2023-04-16T01:18:58.249Z,6.60
2023-04-16T01:21:27.592Z,6.60
2023-04-16T01:23:55.598Z,6.50
2023-04-16T01:26:23.579Z,6.50
2023-04-16T01:28:51.639Z,6.50
2023-04-16T01:31:19.647Z,6.50
2023-04-16T01:33:47.644Z,6.50
2023-04-16T01:36:15.714Z,6.50
2023-04-16T01:38:45.086Z,6.50
2023-04-16T01:41:15.022Z,6.40
2023-04-16T01:43:43.020Z,6.40
2023-04-16T01:46:16.008Z,6.40
2023-04-16T01:48:44.326Z,6.40
2023-04-16T01:51:12.316Z,6.40
2023-04-16T01:53:40.463Z,6.40
2023-04-16T01:56:09.923Z,6.30
2023-04-16T01:58:38.416Z,6.30
2023-04-16T02:01:06.836Z,6.30
2023-04-16T02:03:35.266Z,6.30
2023-04-16T02:06:03.438Z,6.30
2023-04-16T02:08:31.517Z,6.30
2023-04-16T02:11:00.528Z,6.20
2023-04-16T02:13:29.876Z,6.20
2023-04-16T02:15:57.864Z,6.20
2023-04-16T02:18:25.897Z,6.20
2023-04-16T02:20:53.876Z,6.20
2023-04-16T02:23:21.836Z,6.20
2023-04-16T02:25:51.247Z,6.20
2023-04-16T02:28:19.246Z,6.10
2023-04-16T02:30:49.745Z,6.10
2023-04-16T02:33:17.707Z,6.10
2023-04-16T02:35:45.689Z,6.10
2023-04-16T02:38:13.630Z,6.10
2023-04-16T02:40:41.869Z,6.10
2023-04-16T02:43:09.858Z,6.10
2023-04-16T02:45:37.908Z,6.10
2023-04-16T02:48:09.578Z,6.00
2023-04-16T02:50:37.551Z,6.00
2023-04-16T02:53:06.623Z,6.00
2023-04-16T02:55:34.618Z,6.00
2023-04-16T02:58:02.646Z,6.00
2023-04-16T03:00:30.686Z,6.00
2023-04-16T03:02:58.765Z,6.00
2023-04-16T03:05:28.417Z,5.90
2023-04-16T03:07:57.251Z,5.90
2023-04-16T03:10:25.209Z,5.90
2023-04-16T03:12:53.163Z,5.90
2023-04-16T03:15:21.161Z,5.90
2023-04-16T03:17:49.179Z,5.90
2023-04-16T03:20:17.975Z,5.90
2023-04-16T03:22:47.648Z,5.80
2023-04-16T03:25:15.702Z,5.80
2023-04-16T03:27:43.913Z,5.80
2023-04-16T03:30:13.229Z,5.90
2023-04-16T03:32:41.913Z,5.90
2023-04-16T03:35:11.033Z,5.80
2023-04-16T03:37:39.231Z,5.80
2023-04-16T03:40:10.153Z,5.80
2023-04-16T03:42:38.142Z,5.80
2023-04-16T03:45:06.980Z,5.80
2023-04-16T03:47:34.945Z,5.80
2023-04-16T03:50:03.199Z,5.80
2023-04-16T03:52:31.454Z,5.80
2023-04-16T03:54:59.426Z,5.80
2023-04-16T03:57:28.751Z,5.80
2023-04-16T03:59:56.735Z,5.80
2023-04-16T04:02:27.261Z,5.80
2023-04-16T04:04:55.711Z,5.80
2023-04-16T04:07:23.758Z,5.80
2023-04-16T04:09:51.768Z,5.90
2023-04-16T04:12:19.781Z,5.90
2023-04-16T04:14:49.120Z,5.90
2023-04-16T04:17:17.121Z,5.90
2023-04-16T04:19:59.921Z,5.90
2023-04-16T04:22:28.777Z,5.90
2023-04-16T04:24:56.824Z,6.00
2023-04-16T04:27:25.330Z,6.00
2023-04-16T04:29:54.869Z,6.00
2023-04-16T04:32:22.894Z,6.10
2023-04-16T04:34:51.075Z,6.10
2023-04-16T04:37:19.066Z,6.10
2023-04-16T04:39:47.050Z,6.20
2023-04-16T04:42:15.064Z,6.20
2023-04-16T04:44:43.262Z,6.30
2023-04-16T04:47:17.425Z,6.30
2023-04-16T04:49:45.419Z,6.30
2023-04-16T04:52:13.543Z,6.40
2023-04-16T04:54:42.157Z,6.40
2023-04-16T04:57:10.280Z,6.40
2023-04-16T04:59:38.271Z,6.50
2023-04-16T05:02:10.503Z,6.50
2023-04-16T05:04:40.028Z,6.50
2023-04-16T05:07:08.197Z,6.60
2023-04-16T05:09:36.301Z,6.60
2023-04-16T05:12:05.947Z,6.70
2023-04-16T05:14:34.046Z,6.70
2023-04-16T05:17:02.127Z,6.70
2023-04-16T05:19:30.206Z,6.80
2023-04-16T05:21:59.618Z,6.80
2023-04-16T05:24:27.598Z,6.90
2023-04-16T05:26:56.714Z,6.90
2023-04-16T05:29:27.555Z,6.90
2023-04-16T05:31:55.565Z,7.00
2023-04-16T05:34:23.518Z,7.00
2023-04-16T05:36:51.509Z,7.10
2023-04-16T05:39:21.242Z,7.10
2023-04-16T05:41:49.215Z,7.10
2023-04-16T05:44:17.432Z,7.20
2023-04-16T05:46:45.381Z,7.20
2023-04-16T05:49:13.321Z,7.30
2023-04-16T05:51:41.335Z,7.30
2023-04-16T05:54:09.352Z,7.30
2023-04-16T05:56:38.716Z,7.40
2023-04-16T05:59:08.883Z,7.40
2023-04-16T06:01:37.036Z,7.50
2023-04-16T06:04:06.516Z,7.50
2023-04-16T06:06:34.886Z,7.60
2023-04-16T06:09:02.834Z,7.70
2023-04-16T06:11:31.684Z,7.70
2023-04-16T06:14:01.030Z,7.80
2023-04-16T06:16:29.026Z,7.80
2023-04-16T06:18:57.056Z,7.90
2023-04-16T06:21:25.122Z,8.00
2023-04-16T06:23:53.302Z,8.00
2023-04-16T06:26:21.627Z,8.10
2023-04-16T06:28:50.023Z,8.10
2023-04-16T06:31:19.474Z,8.20
2023-04-16T06:33:49.526Z,8.30
2023-04-16T06:36:18.068Z,8.30
2023-04-16T06:38:46.426Z,8.40
2023-04-16T06:41:15.419Z,8.40
2023-04-16T06:43:43.557Z,8.50
2023-04-16T06:46:11.510Z,8.50
2023-04-16T06:48:40.981Z,8.60
2023-04-16T06:51:09.143Z,8.60
2023-04-16T06:53:38.620Z,8.60
2023-04-16T06:56:07.563Z,8.70
2023-04-16T06:58:35.563Z,8.70
2023-04-16T07:01:03.813Z,8.80
2023-04-16T07:03:32.058Z,8.80
2023-04-16T07:06:01.532Z,8.90
2023-04-16T07:08:29.632Z,9.00
2023-04-16T07:10:57.656Z,9.00
2023-04-16T07:13:26.179Z,9.10
2023-04-16T07:15:56.112Z,9.20
2023-04-16T07:18:24.146Z,9.30
2023-04-16T07:20:53.683Z,9.40
2023-04-16T07:23:23.106Z,9.60
2023-04-16T07:25:51.303Z,10.40
2023-04-16T07:28:19.257Z,11.50
2023-04-16T07:30:47.279Z,12.60
2023-04-16T07:33:15.270Z,13.60
2023-04-16T07:35:48.184Z,14.30
2023-04-16T07:38:16.466Z,15.10
2023-04-16T07:40:45.962Z,15.90
2023-04-16T07:43:15.386Z,16.40
2023-04-16T07:45:43.475Z,16.60
2023-04-16T07:48:13.629Z,16.20
2023-04-16T07:50:43.474Z,15.80
2023-04-16T07:53:11.727Z,16.40
2023-04-16T07:55:39.909Z,16.70
2023-04-16T07:58:09.646Z,16.90
2023-04-16T08:00:37.690Z,17.10
2023-04-16T08:03:05.973Z,17.90
2023-04-16T08:05:34.096Z,18.30
2023-04-16T08:08:02.069Z,18.50
2023-04-16T08:10:30.121Z,19.00
2023-04-16T08:12:58.389Z,19.50
2023-04-16T08:15:27.725Z,19.90
2023-04-16T08:17:55.720Z,20.30
2023-04-16T08:20:24.069Z,20.70
2023-04-16T08:22:52.116Z,20.80
2023-04-16T08:25:20.566Z,21.20
2023-04-16T08:27:48.495Z,21.50
2023-04-16T08:30:16.723Z,21.60
2023-04-16T08:32:48.644Z,21.90
2023-04-16T08:35:18.063Z,22.00
2023-04-16T08:37:46.062Z,22.10
2023-04-16T08:40:17.116Z,22.40
2023-04-16T08:42:50.066Z,22.60
2023-04-16T08:45:19.094Z,22.90
2023-04-16T08:47:49.419Z,23.00
2023-04-16T08:50:19.098Z,23.20
2023-04-16T08:52:53.125Z,23.30
2023-04-16T08:55:24.421Z,23.50
2023-04-16T08:57:59.298Z,23.60
2023-04-16T09:00:29.471Z,23.80
2023-04-16T09:02:59.955Z,23.80
2023-04-16T09:05:30.307Z,23.80
2023-04-16T09:07:58.309Z,23.90
2023-04-16T09:10:27.444Z,24.00
2023-04-16T09:12:57.429Z,24.20
2023-04-16T09:15:26.536Z,24.30
2023-04-16T09:17:56.836Z,24.60
2023-04-16T09:20:26.287Z,24.40
2023-04-16T09:22:54.354Z,24.50
2023-04-16T09:25:24.078Z,24.60
2023-04-16T09:27:52.189Z,24.90
2023-04-16T09:30:22.768Z,24.90
2023-04-16T09:32:51.500Z,24.80
2023-04-16T09:35:20.864Z,23.80
2023-04-16T09:37:59.346Z,23.60
2023-04-16T09:40:30.475Z,23.90
2023-04-16T09:43:00.758Z,24.20
2023-04-16T09:45:34.050Z,24.20
2023-04-16T09:48:13.668Z,22.90
2023-04-16T09:50:47.654Z,22.50
2023-04-16T09:53:25.145Z,23.10
2023-04-16T09:55:53.230Z,23.10
2023-04-16T09:58:21.404Z,23.10
2023-04-16T10:00:49.411Z,23.40
2023-04-16T10:03:17.743Z,23.70
2023-04-16T10:05:46.658Z,24.00
2023-04-16T10:08:16.318Z,24.00
2023-04-16T10:10:47.122Z,23.40
2023-04-16T10:13:17.584Z,22.80
2023-04-16T10:15:45.875Z,22.40
2023-04-16T10:18:15.544Z,22.00
2023-04-16T10:20:44.707Z,21.70
2023-04-16T10:23:13.310Z,21.50
2023-04-16T10:25:45.038Z,21.30
2023-04-16T10:28:15.194Z,21.20
2023-04-16T10:30:52.445Z,21.00
2023-04-16T10:33:25.307Z,20.80
2023-04-16T10:36:04.889Z,20.60
2023-04-16T10:38:35.412Z,20.50
2023-04-16T10:41:06.719Z,20.30
2023-04-16T10:43:40.454Z,20.20
2023-04-16T10:46:32.239Z,20.10
2023-04-16T10:49:02.870Z,20.10
2023-04-16T10:51:33.183Z,20.30
2023-04-16T10:54:05.749Z,20.70
2023-04-16T10:56:36.238Z,20.60
2023-04-16T10:59:08.511Z,20.40
2023-04-16T11:01:39.238Z,20.20
2023-04-16T11:04:28.939Z,20.10
2023-04-16T11:07:19.318Z,20.00
2023-04-16T11:09:53.326Z,19.80
2023-04-16T11:12:24.024Z,19.80
2023-04-16T11:14:53.935Z,19.80
2023-04-16T11:17:22.555Z,19.90
2023-04-16T11:19:51.551Z,19.80
2023-04-16T11:22:21.881Z,19.70
2023-04-16T11:24:56.027Z,19.60
2023-04-16T11:27:26.419Z,19.60
2023-04-16T11:30:01.929Z,19.50
2023-04-16T11:32:32.678Z,19.50
2023-04-16T11:35:03.602Z,19.50
2023-04-16T11:37:39.243Z,19.50
2023-04-16T11:40:09.607Z,19.40
2023-04-16T11:42:41.339Z,19.30
2023-04-16T11:45:10.933Z,19.30
2023-04-16T11:47:45.058Z,19.40
2023-04-16T11:50:23.439Z,19.40
2023-04-16T11:52:52.594Z,19.40
2023-04-16T11:55:21.551Z,19.40
2023-04-16T11:57:52.590Z,19.30
2023-04-16T12:00:23.029Z,19.30
2023-04-16T12:02:54.598Z,19.30
2023-04-16T12:05:30.959Z,19.30
2023-04-16T12:08:00.104Z,19.30
2023-04-16T12:10:28.869Z,19.20
2023-04-16T12:13:12.106Z,19.30
2023-04-16T12:15:47.424Z,19.20
2023-04-16T12:18:16.129Z,19.20
2023-04-16T12:20:45.137Z,19.30
2023-04-16T12:23:24.082Z,19.20
2023-04-16T12:25:52.114Z,19.10
2023-04-16T12:28:30.930Z,18.90
2023-04-16T12:30:59.317Z,18.90
2023-04-16T12:33:27.634Z,18.80
2023-04-16T12:35:55.776Z,18.80
2023-04-16T12:38:25.510Z,18.80
2023-04-16T12:40:56.603Z,18.60
2023-04-16T12:43:24.996Z,18.70
2023-04-16T12:45:54.528Z,19.00
2023-04-16T12:48:22.527Z,19.30
2023-04-16T12:50:50.552Z,19.30
2023-04-16T12:53:21.778Z,19.00
2023-04-16T12:55:50.059Z,18.90
2023-04-16T12:58:18.020Z,19.00
2023-04-16T13:00:46.101Z,19.10
2023-04-16T13:03:16.090Z,19.10
2023-04-16T13:05:46.984Z,19.20
2023-04-16T13:08:15.026Z,19.30
2023-04-16T13:10:42.989Z,19.30
2023-04-16T13:13:11.019Z,19.10
2023-04-16T13:15:39.173Z,19.10
2023-04-16T13:18:07.224Z,19.30
2023-04-16T13:20:36.685Z,19.50
2023-04-16T13:23:05.134Z,19.50
2023-04-16T13:25:33.446Z,19.50
2023-04-16T13:28:01.516Z,19.60
2023-04-16T13:30:30.076Z,19.40
2023-04-16T13:32:58.324Z,19.20
2023-04-16T13:35:27.240Z,19.10
2023-04-16T13:37:56.940Z,19.20
2023-04-16T13:40:27.796Z,19.20
2023-04-16T13:42:55.947Z,19.30
2023-04-16T13:45:24.193Z,19.40
2023-04-16T13:47:52.411Z,19.30
2023-04-16T13:50:20.822Z,19.30
2023-04-16T13:52:48.815Z,19.40
2023-04-16T13:55:19.239Z,19.30
2023-04-16T13:57:48.293Z,19.20
2023-04-16T14:00:18.083Z,19.20
2023-04-16T14:02:48.527Z,19.10
2023-04-16T14:05:16.896Z,19.10
2023-04-16T14:07:44.884Z,19.10
2023-04-16T14:10:14.883Z,19.10
2023-04-16T14:12:45.684Z,19.20
2023-04-16T14:15:14.814Z,19.10
2023-04-16T14:17:43.882Z,19.10
2023-04-16T14:20:13.687Z,19.10
2023-04-16T14:22:42.533Z,19.20
2023-04-16T14:25:10.568Z,19.20
2023-04-16T14:27:38.886Z,19.20
2023-04-16T14:30:09.492Z,19.10
2023-04-16T14:32:37.718Z,19.00
2023-04-16T14:35:06.858Z,19.00
2023-04-16T14:37:35.860Z,18.90
2023-04-16T14:40:07.745Z,18.90
2023-04-16T14:42:36.506Z,18.80
2023-04-16T14:45:06.666Z,18.70
2023-04-16T14:47:37.772Z,18.70
2023-04-16T14:50:06.878Z,18.60
2023-04-16T14:52:35.155Z,18.50
2023-04-16T14:55:03.174Z,18.50
2023-04-16T14:57:31.568Z,18.40
2023-04-16T14:59:59.552Z,18.40
2023-04-16T15:02:29.518Z,18.40
2023-04-16T15:04:59.072Z,18.30
2023-04-16T15:07:27.638Z,18.20
2023-04-16T15:09:58.009Z,18.20
2023-04-16T15:12:28.706Z,18.20
2023-04-16T15:14:56.738Z,18.20
2023-04-16T15:17:24.797Z,18.10
2023-04-16T15:19:53.584Z,18.10
2023-04-16T15:22:22.958Z,18.00
2023-04-16T15:24:51.130Z,17.90
2023-04-16T15:27:19.370Z,18.00
2023-04-16T15:29:50.885Z,17.90
2023-04-16T15:32:19.006Z,17.80
2023-04-16T15:34:47.738Z,17.80
2023-04-16T15:37:16.242Z,17.70
2023-04-16T15:39:45.745Z,17.70
2023-04-16T15:42:14.142Z,17.60
2023-04-16T15:44:42.158Z,17.50
2023-04-16T15:47:10.193Z,17.50
2023-04-16T15:49:38.436Z,17.40
2023-04-16T15:52:06.726Z,17.30
2023-04-16T15:54:34.843Z,17.30
2023-04-16T15:57:04.446Z,17.20
2023-04-16T15:59:32.705Z,17.20
2023-04-16T16:02:01.113Z,17.10
2023-04-16T16:04:31.762Z,17.10
2023-04-16T16:07:00.191Z,17.00
2023-04-16T16:09:30.612Z,16.90
2023-04-16T16:12:00.786Z,16.90
2023-04-16T16:14:35.683Z,16.80
2023-04-16T16:17:03.666Z,16.70
2023-04-16T16:19:31.726Z,16.70
2023-04-16T16:21:59.742Z,16.60
2023-04-16T16:24:28.235Z,16.50
2023-04-16T16:26:56.538Z,16.40
2023-04-16T16:29:25.349Z,16.40
2023-04-16T16:31:56.373Z,16.30
2023-04-16T16:34:24.426Z,16.20
2023-04-16T16:36:52.473Z,16.20
2023-04-16T16:39:24.292Z,16.20
2023-04-16T16:41:52.738Z,16.10
2023-04-16T16:44:21.040Z,16.00
2023-04-16T16:46:49.281Z,16.00
2023-04-16T16:49:20.219Z,15.90
2023-04-16T16:51:48.815Z,15.80
2023-04-16T16:54:16.830Z,15.70
2023-04-16T16:56:44.833Z,15.70
2023-04-16T16:59:13.010Z,15.60
2023-04-16T17:01:41.267Z,15.60
2023-04-16T17:04:09.312Z,15.60
2023-04-16T17:06:39.219Z,15.50
2023-04-16T17:09:09.215Z,15.50
2023-04-16T17:11:37.394Z,15.40
2023-04-16T17:14:05.656Z,15.40
2023-04-16T17:16:33.723Z,15.30
2023-04-16T17:19:01.782Z,15.20
2023-04-16T17:21:29.789Z,15.20
2023-04-16T17:24:01.524Z,15.10
2023-04-16T17:26:34.903Z,15.10
2023-04-16T17:29:04.424Z,15.00
2023-04-16T17:31:32.518Z,14.90
2023-04-16T17:34:02.904Z,14.90
2023-04-16T17:36:31.332Z,14.80
2023-04-16T17:39:00.736Z,14.80
2023-04-16T17:41:29.693Z,14.70
2023-04-16T17:44:01.898Z,14.70
2023-04-16T17:46:30.060Z,14.60
2023-04-16T17:49:02.621Z,14.60
2023-04-16T17:51:34.164Z,14.60
2023-04-16T17:54:03.572Z,14.50
2023-04-16T17:56:34.273Z,14.40
2023-04-16T17:59:03.937Z,14.40
2023-04-16T18:01:34.280Z,14.30
2023-04-16T18:04:02.582Z,14.30
2023-04-16T18:06:31.131Z,14.20
2023-04-16T18:08:59.209Z,14.20
2023-04-16T18:11:34.182Z,14.10
2023-04-16T18:14:04.046Z,14.10
2023-04-16T18:16:35.793Z,14.00
2023-04-16T18:19:07.347Z,13.90
2023-04-16T18:21:35.746Z,13.90
2023-04-16T18:24:05.410Z,13.80
2023-04-16T18:26:41.276Z,13.80
2023-04-16T18:29:14.514Z,13.70
2023-04-16T18:31:55.165Z,13.70
2023-04-16T18:34:29.736Z,13.60
2023-04-16T18:36:59.099Z,13.50
2023-04-16T18:39:30.244Z,13.50
2023-04-16T18:42:08.889Z,13.40
2023-04-16T18:44:55.337Z,13.30
2023-04-16T18:47:25.563Z,13.20
2023-04-16T18:50:00.433Z,13.20
2023-04-16T18:52:32.395Z,13.20
2023-04-16T18:55:03.261Z,13.20
2023-04-16T18:57:41.827Z,13.10
2023-04-16T19:00:17.801Z,13.00
2023-04-16T19:02:48.247Z,13.00
2023-04-16T19:05:21.100Z,12.90
2023-04-16T19:07:51.354Z,12.90
2023-04-16T19:10:22.505Z,12.90
2023-04-16T19:12:57.088Z,12.80
2023-04-16T19:15:30.066Z,12.80
2023-04-16T19:18:11.487Z,12.80
2023-04-16T19:20:52.054Z,12.70
2023-04-16T19:23:22.308Z,12.70
2023-04-16T19:25:51.664Z,12.60
2023-04-16T19:28:28.201Z,12.60
2023-04-16T19:31:12.542Z,12.50
2023-04-16T19:33:46.097Z,12.50
2023-04-16T19:36:18.106Z,12.50
2023-04-16T19:38:47.974Z,12.40
2023-04-16T19:41:17.791Z,12.40
2023-04-16T19:43:53.321Z,12.30
2023-04-16T19:46:36.892Z,12.30
2023-04-16T19:49:10.814Z,12.30
2023-04-16T19:51:48.671Z,12.30
2023-04-16T19:54:27.307Z,12.20
2023-04-16T19:57:04.637Z,12.20
2023-04-16T19:59:34.712Z,12.20
2023-04-16T20:02:11.074Z,12.20
2023-04-16T20:04:39.770Z,12.10
2023-04-16T20:07:16.548Z,12.10
2023-04-16T20:09:50.296Z,12.10
2023-04-16T20:12:18.572Z,12.10
2023-04-16T20:14:58.082Z,12.10
2023-04-16T20:17:32.257Z,12.10
2023-04-16T20:20:10.497Z,12.10
2023-04-16T20:22:41.566Z,12.00
2023-04-16T20:25:10.591Z,12.00
2023-04-16T20:27:40.292Z,12.00
2023-04-16T20:30:10.674Z,12.00
2023-04-16T20:32:40.250Z,12.00
2023-04-16T20:35:12.379Z,12.00
2023-04-16T20:37:42.267Z,11.90
2023-04-16T20:40:11.171Z,11.90
2023-04-16T20:42:40.747Z,11.90
2023-04-16T20:45:14.914Z,11.80
2023-04-16T20:47:46.777Z,11.80
2023-04-16T20:50:14.926Z,11.80
2023-04-16T20:52:43.246Z,11.80
2023-04-16T20:55:11.627Z,11.70
2023-04-16T20:57:39.624Z,11.70
2023-04-16T21:00:14.185Z,11.70
2023-04-16T21:02:42.325Z,11.60
2023-04-16T21:05:14.139Z,11.60
2023-04-16T21:07:42.685Z,11.60
2023-04-16T21:10:11.555Z,11.50
2023-04-16T21:12:39.560Z,11.50
2023-04-16T21:15:11.503Z,11.50
2023-04-16T21:17:39.501Z,11.50
2023-04-16T21:20:13.420Z,11.40
2023-04-16T21:22:41.434Z,11.40
2023-04-16T21:25:10.655Z,11.30
2023-04-16T21:27:38.609Z,11.30
2023-04-16T21:30:07.605Z,11.30
2023-04-16T21:32:37.263Z,11.30
2023-04-16T21:35:06.016Z,11.20
2023-04-16T21:37:34.103Z,11.20
2023-04-16T21:40:02.245Z,11.20
2023-04-16T21:42:31.380Z,11.10
2023-04-16T21:44:59.408Z,11.10
2023-04-16T21:47:27.393Z,11.00
2023-04-16T21:49:56.745Z,11.00
2023-04-16T21:52:24.706Z,11.00
2023-04-16T21:54:53.858Z,10.90
2023-04-16T21:57:21.834Z,10.90
2023-04-16T21:59:49.861Z,10.90
2023-04-16T22:02:17.912Z,10.80
2023-04-16T22:04:46.068Z,10.80
2023-04-16T22:07:16.817Z,10.80
2023-04-16T22:09:44.984Z,10.80
2023-04-16T22:12:15.886Z,10.80
2023-04-16T22:14:55.453Z,10.70
2023-04-16T22:17:30.095Z,10.70
2023-04-16T22:20:00.475Z,10.60
2023-04-16T22:22:29.836Z,10.60
2023-04-16T22:24:57.833Z,10.60
2023-04-16T22:27:28.184Z,10.60
2023-04-16T22:29:56.135Z,10.50
2023-04-16T22:32:26.512Z,10.50
2023-04-16T22:34:54.671Z,10.50
2023-04-16T22:37:22.628Z,10.50
2023-04-16T22:39:53.764Z,10.50
2023-04-16T22:42:21.749Z,10.40
2023-04-16T22:44:49.721Z,10.40
2023-04-16T22:47:17.695Z,10.30
2023-04-16T22:49:45.661Z,10.30
2023-04-16T22:52:13.667Z,10.30
2023-04-16T22:54:41.617Z,10.30
2023-04-16T22:57:12.380Z,10.30
2023-04-16T22:59:40.359Z,10.30
2023-04-16T23:02:08.459Z,10.20
2023-04-16T23:04:36.458Z,10.20
2023-04-16T23:07:04.434Z,10.20
2023-04-16T23:09:32.866Z,10.20
2023-04-16T23:12:01.997Z,10.20
2023-04-16T23:14:31.553Z,10.10
2023-04-16T23:16:59.906Z,10.10
2023-04-16T23:19:27.858Z,10.10
2023-04-16T23:21:55.808Z,10.10
2023-04-16T23:24:25.849Z,10.10
2023-04-16T23:26:53.802Z,10.00
2023-04-16T23:29:21.788Z,10.00
2023-04-16T23:31:51.465Z,10.00
2023-04-16T23:34:19.780Z,9.90
2023-04-16T23:36:47.746Z,9.90
2023-04-16T23:39:15.764Z,9.90
2023-04-16T23:41:43.946Z,9.90
2023-04-16T23:44:13.223Z,9.90
2023-04-16T23:46:41.326Z,9.80
2023-04-16T23:49:11.109Z,9.80
2023-04-16T23:51:39.363Z,9.80
2023-04-16T23:54:07.648Z,9.80
2023-04-16T23:56:35.624Z,9.80
2023-04-16T23:59:03.588Z,9.80
